Saanich, Canada
Current Conditions -  °F | °C
As of 2:00 PM on Sunday 23 Nov 2014 (Local Time) from CYWH Reporting Station
Scattered Clouds Scattered Clouds  
Wind Chill: 52°   Ceiling: Unl
Heat Index: 52°   Visibility: 15mi
Dew Point: 39°   Wind: 16mph
Humidity: 62%   Direction: 260°W
Pressure: 30.13"   Gusts: 29mph
Location:  48.46°N, 123.38°W
Report Text: CYWH 232200Z 26014G25KT 15SM FEW030 SCT090 11/04 A3013 RMK CU2AC2 TCU ASOCTD SLP203
Loading
Personal Weather Stations






























Interactive Weather Map New forecast layout! Learn more

10-Day Weather Forecast

Advertisements
Track Severe Weather on mobile